Time;durP1;ratioP1;P1;durP2;ratioP2;P2;SDS_P1;SDS_P2;PMS_P1;PMS_P2;Temp;Humidity;BMP_temperature;BMP_pressure;BME280_temperature;BME280_humidity;BME280_pressure;Samples;Min_cycle;Max_cycle;Signal;HPM_P1;HPM_P2
2021/03/04 00:02:02;;;;;;;26.50;14.20;;;;;;;;;;5014529;28;20354;-53
2021/03/04 00:04:28;;;;;;;23.83;13.13;;;;;;;;;;5014067;28;20053;-53
2021/03/04 00:06:54;;;;;;;25.38;13.95;;;;;;;;;;5014419;28;20038;-55
2021/03/04 00:09:21;;;;;;;24.63;13.35;;;;;;;;;;5014218;28;20033;-52
2021/03/04 00:11:47;;;;;;;21.55;11.50;;;;;;;;;;5014415;28;20076;-54
2021/03/04 00:14:13;;;;;;;22.60;11.45;;;;;;;;;;5014035;28;20038;-53
2021/03/04 00:16:39;;;;;;;24.38;11.45;;;;;;;;;;5013994;28;20084;-52
2021/03/04 00:19:05;;;;;;;22.30;11.85;;;;;;;;;;5014294;28;20045;-51
2021/03/04 00:21:31;;;;;;;23.60;12.80;;;;;;;;;;5013903;28;20032;-46
2021/03/04 00:23:57;;;;;;;20.48;12.18;;;;;;;;;;5014190;28;20030;-52
2021/03/04 00:26:23;;;;;;;24.83;12.80;;;;;;;;;;5013914;28;20026;-52
2021/03/04 00:28:49;;;;;;;22.00;11.63;;;;;;;;;;5014083;28;20109;-49
2021/03/04 00:31:16;;;;;;;26.63;12.63;;;;;;;;;;5013671;28;20030;-53
2021/03/04 00:33:42;;;;;;;28.17;14.27;;;;;;;;;;5013541;28;20092;-52
2021/03/04 00:36:08;;;;;;;27.65;13.65;;;;;;;;;;5013954;28;20488;-50
2021/03/04 00:38:34;;;;;;;26.80;13.10;;;;;;;;;;5013675;28;20034;-53
2021/03/04 00:41:00;;;;;;;26.98;13.63;;;;;;;;;;5013913;28;20049;-52
2021/03/04 00:43:26;;;;;;;21.83;12.23;;;;;;;;;;5013857;28;20037;-51
2021/03/04 00:48:28;;;;;;;28.88;13.38;;;;;;;;;;5129132;22;20049;-49
2021/03/04 00:50:54;;;;;;;30.40;13.27;;;;;;;;;;5012548;28;20034;-52
2021/03/04 00:53:21;;;;;;;31.30;13.77;;;;;;;;;;5012752;28;20523;-51
2021/03/04 00:55:47;;;;;;;32.97;16.17;;;;;;;;;;5012680;28;20350;-55
2021/03/04 00:58:13;;;;;;;31.25;16.88;;;;;;;;;;5012709;28;20079;-50
2021/03/04 01:00:40;;;;;;;35.10;16.55;;;;;;;;;;5012700;28;20077;-50
2021/03/04 01:03:06;;;;;;;32.10;15.20;;;;;;;;;;5012530;28;20357;-53
2021/03/04 01:05:32;;;;;;;27.95;13.95;;;;;;;;;;5012574;28;20022;-50
2021/03/04 01:07:58;;;;;;;29.15;13.63;;;;;;;;;;5012639;28;20478;-52
2021/03/04 01:10:28;;;;;;;28.05;13.50;;;;;;;;;;5012666;28;20022;-48
2021/03/04 01:12:54;;;;;;;27.23;13.48;;;;;;;;;;5012423;28;20065;-47
2021/03/04 01:15:21;;;;;;;28.65;14.32;;;;;;;;;;5012330;28;20018;-53
2021/03/04 01:17:47;;;;;;;30.80;15.25;;;;;;;;;;5012075;28;20024;-50
2021/03/04 01:20:15;;;;;;;31.60;15.43;;;;;;;;;;5012279;28;20370;-47
2021/03/04 01:22:41;;;;;;;33.58;16.10;;;;;;;;;;5012665;28;20018;-47
2021/03/04 01:25:08;;;;;;;28.02;15.38;;;;;;;;;;5012287;28;20058;-52
2021/03/04 01:27:34;;;;;;;28.48;15.27;;;;;;;;;;5012209;28;20080;-52
2021/03/04 01:30:00;;;;;;;28.38;15.05;;;;;;;;;;5011979;28;20026;-48
2021/03/04 01:32:26;;;;;;;25.58;13.77;;;;;;;;;;5011925;28;20473;-48
2021/03/04 01:34:52;;;;;;;23.05;11.98;;;;;;;;;;5012039;28;20033;-48
2021/03/04 01:37:18;;;;;;;21.85;11.38;;;;;;;;;;5012053;28;20030;-47
2021/03/04 01:39:44;;;;;;;20.95;11.23;;;;;;;;;;5011971;28;20057;-46
2021/03/04 01:42:11;;;;;;;20.48;11.50;;;;;;;;;;5011612;28;20532;-46
2021/03/04 01:44:37;;;;;;;22.77;12.15;;;;;;;;;;5012251;28;20088;-49
2021/03/04 01:47:04;;;;;;;19.60;10.30;;;;;;;;;;5011832;28;20112;-51
2021/03/04 01:49:30;;;;;;;20.80;10.27;;;;;;;;;;5011696;28;20505;-49
2021/03/04 01:51:56;;;;;;;24.33;10.65;;;;;;;;;;5011737;28;20522;-53
2021/03/04 01:54:22;;;;;;;22.75;10.80;;;;;;;;;;5011743;28;20038;-52
2021/03/04 01:56:48;;;;;;;18.77;9.88;;;;;;;;;;5011716;28;20037;-50
2021/03/04 01:59:15;;;;;;;23.15;11.00;;;;;;;;;;5011628;28;20022;-54
2021/03/04 02:01:41;;;;;;;23.48;11.80;;;;;;;;;;5011851;28;20029;-49
2021/03/04 02:04:07;;;;;;;23.27;11.20;;;;;;;;;;5011390;28;20422;-52
2021/03/04 02:06:41;;;;;;;21.77;11.25;;;;;;;;;;5011708;28;20045;-56
2021/03/04 02:09:08;;;;;;;19.52;10.20;;;;;;;;;;5011791;28;20373;-50
2021/03/04 02:11:38;;;;;;;19.08;10.60;;;;;;;;;;5011606;28;20026;-50
2021/03/04 02:14:06;;;;;;;18.77;10.43;;;;;;;;;;5011625;28;20022;-54
2021/03/04 02:16:42;;;;;;;20.30;10.55;;;;;;;;;;5011548;28;20033;-52
2021/03/04 02:19:22;;;;;;;19.35;10.88;;;;;;;;;;5011677;28;20373;-50
2021/03/04 02:21:48;;;;;;;19.80;10.90;;;;;;;;;;5011741;28;20026;-49
2021/03/04 02:24:28;;;;;;;19.17;9.95;;;;;;;;;;5011451;28;20026;-51
2021/03/04 02:27:05;;;;;;;22.23;10.60;;;;;;;;;;5011767;28;20029;-48
2021/03/04 02:29:43;;;;;;;21.75;11.13;;;;;;;;;;5011506;28;20030;-50
2021/03/04 02:32:10;;;;;;;20.55;10.48;;;;;;;;;;5011855;28;20097;-50
2021/03/04 02:34:38;;;;;;;22.48;10.68;;;;;;;;;;5011178;28;20088;-47
2021/03/04 02:37:04;;;;;;;23.35;12.27;;;;;;;;;;5011645;28;20026;-49
2021/03/04 02:39:31;;;;;;;23.02;11.95;;;;;;;;;;5011451;28;20032;-53
2021/03/04 02:41:58;;;;;;;24.05;11.55;;;;;;;;;;5011631;28;20377;-47
2021/03/04 02:44:25;;;;;;;22.17;11.63;;;;;;;;;;5011495;28;20384;-51
2021/03/04 02:46:51;;;;;;;23.70;12.00;;;;;;;;;;5011369;28;20026;-52
2021/03/04 02:49:19;;;;;;;22.33;10.77;;;;;;;;;;5010937;28;20054;-49
2021/03/04 02:51:46;;;;;;;21.25;11.68;;;;;;;;;;5011282;28;20018;-49
2021/03/04 02:54:13;;;;;;;21.35;10.80;;;;;;;;;;5011484;28;20473;-52
2021/03/04 02:56:41;;;;;;;23.95;11.90;;;;;;;;;;5015049;28;20106;-47
2021/03/04 02:59:08;;;;;;;21.23;10.93;;;;;;;;;;5014814;28;20036;-48
2021/03/04 03:01:35;;;;;;;21.13;10.68;;;;;;;;;;5015058;28;20049;-53
2021/03/04 03:04:02;;;;;;;21.33;11.25;;;;;;;;;;5014656;28;20030;-50
2021/03/04 03:06:28;;;;;;;22.23;11.85;;;;;;;;;;5014786;28;20041;-55
2021/03/04 03:08:55;;;;;;;28.33;12.95;;;;;;;;;;5014674;28;20037;-51
2021/03/04 03:11:22;;;;;;;32.30;15.25;;;;;;;;;;5014663;28;20076;-50
2021/03/04 03:13:53;;;;;;;30.20;14.90;;;;;;;;;;5014863;28;20029;-52
2021/03/04 03:16:19;;;;;;;29.63;14.27;;;;;;;;;;5014885;28;20037;-54
2021/03/04 03:18:46;;;;;;;29.27;13.32;;;;;;;;;;5014532;28;20022;-50
2021/03/04 03:21:12;;;;;;;22.25;12.10;;;;;;;;;;5014629;28;20034;-56
2021/03/04 03:23:38;;;;;;;27.55;12.15;;;;;;;;;;5014395;28;20025;-52
2021/03/04 03:26:04;;;;;;;21.48;11.70;;;;;;;;;;5014438;28;20029;-50
2021/03/04 03:28:30;;;;;;;26.20;10.80;;;;;;;;;;5014366;28;20065;-52
2021/03/04 03:30:57;;;;;;;26.45;13.60;;;;;;;;;;5014289;28;20520;-50
2021/03/04 03:33:24;;;;;;;62.30;21.45;;;;;;;;;;5014330;28;20037;-51
2021/03/04 03:35:50;;;;;;;135.30;37.00;;;;;;;;;;5014217;28;20430;-53
2021/03/04 03:38:16;;;;;;;165.93;40.15;;;;;;;;;;5014226;28;20552;-51
2021/03/04 03:40:46;;;;;;;134.43;33.72;;;;;;;;;;5014216;28;20100;-52
2021/03/04 03:43:13;;;;;;;115.82;30.27;;;;;;;;;;5014141;28;20029;-50
2021/03/04 03:45:41;;;;;;;98.72;26.38;;;;;;;;;;5014060;28;20022;-51
2021/03/04 03:48:09;;;;;;;133.45;33.00;;;;;;;;;;5014088;28;20797;-51
2021/03/04 03:50:35;;;;;;;143.50;36.45;;;;;;;;;;5013558;28;20038;-53
2021/03/04 03:53:02;;;;;;;112.00;31.25;;;;;;;;;;5013933;28;20478;-51
2021/03/04 03:55:28;;;;;;;82.38;25.45;;;;;;;;;;5013900;28;20057;-49
2021/03/04 03:57:55;;;;;;;62.22;22.40;;;;;;;;;;5013749;28;20496;-50
2021/03/04 04:00:24;;;;;;;51.85;20.98;;;;;;;;;;5014071;28;20034;-54
2021/03/04 04:02:54;;;;;;;52.92;21.27;;;;;;;;;;5013945;28;20028;-47
2021/03/04 04:05:20;;;;;;;55.27;21.93;;;;;;;;;;5012981;28;20030;-57
2021/03/04 04:07:47;;;;;;;55.67;21.52;;;;;;;;;;5013860;28;20496;-54
2021/03/04 04:10:13;;;;;;;62.63;23.85;;;;;;;;;;5013987;28;20032;-49
2021/03/04 04:12:39;;;;;;;46.15;18.10;;;;;;;;;;5013599;28;20027;-49
2021/03/04 04:15:06;;;;;;;46.22;18.67;;;;;;;;;;5013540;28;20495;-51
2021/03/04 04:17:32;;;;;;;43.17;17.73;;;;;;;;;;5013466;28;20109;-56
2021/03/04 04:19:58;;;;;;;37.57;15.87;;;;;;;;;;5013446;28;20026;-49
2021/03/04 04:22:25;;;;;;;30.40;14.43;;;;;;;;;;5013362;28;20533;-50
2021/03/04 04:24:51;;;;;;;31.40;14.50;;;;;;;;;;5013245;28;20030;-51
2021/03/04 04:27:17;;;;;;;31.43;16.77;;;;;;;;;;5013484;28;20026;-50
2021/03/04 04:29:43;;;;;;;25.05;13.85;;;;;;;;;;5013690;28;20033;-56
2021/03/04 04:32:09;;;;;;;25.75;13.20;;;;;;;;;;5013259;28;20068;-48
2021/03/04 04:34:35;;;;;;;25.67;13.77;;;;;;;;;;5013033;28;20026;-57
2021/03/04 04:37:02;;;;;;;26.60;12.73;;;;;;;;;;5013110;28;20018;-51
2021/03/04 04:39:28;;;;;;;29.70;14.77;;;;;;;;;;5013098;28;20097;-53
2021/03/04 04:41:54;;;;;;;33.20;16.50;;;;;;;;;;5013068;28;20595;-52
2021/03/04 04:44:20;;;;;;;25.75;12.57;;;;;;;;;;4995330;28;20042;-51
2021/03/04 04:46:46;;;;;;;25.02;10.68;;;;;;;;;;5013082;28;20481;-50
2021/03/04 04:49:12;;;;;;;25.58;12.18;;;;;;;;;;5012514;28;20053;-55
2021/03/04 04:51:38;;;;;;;26.45;12.52;;;;;;;;;;5012874;28;20099;-49
2021/03/04 04:54:04;;;;;;;25.75;12.98;;;;;;;;;;5012711;28;20030;-51
2021/03/04 04:56:30;;;;;;;26.08;12.80;;;;;;;;;;5012744;28;20101;-55
2021/03/04 04:58:56;;;;;;;24.65;12.50;;;;;;;;;;5012723;28;20469;-46
2021/03/04 05:01:22;;;;;;;21.08;10.82;;;;;;;;;;5012679;28;20033;-52
2021/03/04 05:03:48;;;;;;;31.77;12.07;;;;;;;;;;5012729;28;20477;-54
2021/03/04 05:06:15;;;;;;;22.35;11.20;;;;;;;;;;5012396;28;20026;-53
2021/03/04 05:08:41;;;;;;;23.20;12.75;;;;;;;;;;5012536;28;20030;-52
2021/03/04 05:11:07;;;;;;;25.43;10.63;;;;;;;;;;5012719;28;20428;-49
2021/03/04 05:13:33;;;;;;;21.85;10.77;;;;;;;;;;5012454;28;20030;-56
2021/03/04 05:15:59;;;;;;;23.48;11.48;;;;;;;;;;5012401;28;20062;-49
2021/03/04 05:18:25;;;;;;;22.10;11.50;;;;;;;;;;5011599;28;20018;-51
2021/03/04 05:20:51;;;;;;;27.27;13.73;;;;;;;;;;5012188;28;20076;-57
2021/03/04 05:23:17;;;;;;;32.05;13.77;;;;;;;;;;5012314;28;20026;-52
2021/03/04 05:25:43;;;;;;;27.63;13.52;;;;;;;;;;5012258;28;20479;-49
2021/03/04 05:28:09;;;;;;;31.35;15.98;;;;;;;;;;5012271;28;20097;-52
2021/03/04 05:30:35;;;;;;;38.83;17.92;;;;;;;;;;5012194;28;20026;-50
2021/03/04 05:33:02;;;;;;;42.80;20.45;;;;;;;;;;5012139;28;20022;-52
2021/03/04 05:35:28;;;;;;;43.65;19.00;;;;;;;;;;5011922;28;20101;-53
2021/03/04 05:37:54;;;;;;;35.70;17.52;;;;;;;;;;5012276;28;20029;-51
2021/03/04 05:40:20;;;;;;;39.78;19.02;;;;;;;;;;5012208;28;20026;-51
2021/03/04 05:42:46;;;;;;;37.17;17.77;;;;;;;;;;5012019;28;20120;-48
2021/03/04 05:45:13;;;;;;;34.67;18.27;;;;;;;;;;5011870;28;20045;-51
2021/03/04 05:47:43;;;;;;;36.85;18.60;;;;;;;;;;5011861;28;20079;-53
2021/03/04 05:50:13;;;;;;;41.20;19.48;;;;;;;;;;5011510;28;20085;-53
2021/03/04 05:52:40;;;;;;;33.42;17.33;;;;;;;;;;5011764;28;20473;-54
2021/03/04 05:55:06;;;;;;;36.85;19.25;;;;;;;;;;5011929;28;20077;-54
2021/03/04 05:57:32;;;;;;;39.08;19.80;;;;;;;;;;5011741;28;20037;-52
2021/03/04 05:59:58;;;;;;;36.33;19.33;;;;;;;;;;5011797;28;20079;-50
2021/03/04 06:02:25;;;;;;;32.05;16.20;;;;;;;;;;5011716;28;20026;-49
2021/03/04 06:04:52;;;;;;;29.52;15.25;;;;;;;;;;5011888;28;20362;-50
2021/03/04 06:07:18;;;;;;;53.90;25.05;;;;;;;;;;5011805;28;20037;-53
2021/03/04 06:09:44;;;;;;;35.83;18.02;;;;;;;;;;5011680;28;20017;-54
2021/03/04 06:12:11;;;;;;;25.42;14.63;;;;;;;;;;5011847;28;20397;-50
2021/03/04 06:14:37;;;;;;;31.02;14.07;;;;;;;;;;5011807;28;20030;-52
2021/03/04 06:17:16;;;;;;;28.08;13.43;;;;;;;;;;5011580;28;20030;-47
2021/03/04 06:19:51;;;;;;;37.05;15.55;;;;;;;;;;5011543;28;20104;-49
2021/03/04 06:22:27;;;;;;;38.33;16.73;;;;;;;;;;5011413;28;20487;-49
2021/03/04 06:24:54;;;;;;;37.30;19.08;;;;;;;;;;5011630;28;20030;-53
2021/03/04 06:27:31;;;;;;;34.83;17.95;;;;;;;;;;5011721;28;20495;-48
2021/03/04 06:29:58;;;;;;;31.65;17.38;;;;;;;;;;5014703;28;20030;-49
2021/03/04 06:32:24;;;;;;;28.23;14.98;;;;;;;;;;5015473;28;20026;-50
2021/03/04 06:35:09;;;;;;;42.70;20.95;;;;;;;;;;5015484;28;20480;-51
2021/03/04 06:37:37;;;;;;;30.95;16.52;;;;;;;;;;5012769;28;20115;-49
2021/03/04 06:40:04;;;;;;;36.88;18.52;;;;;;;;;;5023573;28;20025;-55
2021/03/04 06:42:41;;;;;;;40.17;19.23;;;;;;;;;;5022057;28;20374;-53
2021/03/04 06:45:07;;;;;;;34.75;19.63;;;;;;;;;;5015564;28;20048;-52
2021/03/04 06:47:33;;;;;;;31.90;17.35;;;;;;;;;;5013194;28;20025;-55
2021/03/04 06:49:59;;;;;;;29.67;15.75;;;;;;;;;;5018028;28;20446;-54
2021/03/04 06:52:27;;;;;;;24.80;14.27;;;;;;;;;;5013858;28;20037;-54
2021/03/04 06:54:53;;;;;;;26.38;14.30;;;;;;;;;;5015127;28;20392;-54
2021/03/04 06:57:20;;;;;;;29.42;16.15;;;;;;;;;;5015873;28;20029;-49
2021/03/04 06:59:47;;;;;;;34.25;18.10;;;;;;;;;;5015772;28;20416;-47
2021/03/04 07:02:28;;;;;;;35.38;19.67;;;;;;;;;;5015426;28;20026;-48
2021/03/04 07:04:55;;;;;;;35.80;19.58;;;;;;;;;;5015582;28;20064;-50
2021/03/04 07:07:24;;;;;;;32.00;18.25;;;;;;;;;;5021029;28;20026;-50
2021/03/04 07:09:50;;;;;;;29.25;16.50;;;;;;;;;;5023086;28;20077;-46
2021/03/04 07:12:18;;;;;;;27.70;15.55;;;;;;;;;;5014593;28;20040;-49
2021/03/04 07:14:45;;;;;;;27.20;14.82;;;;;;;;;;5009745;28;20030;-48
2021/03/04 07:17:11;;;;;;;24.98;13.32;;;;;;;;;;5003319;28;20437;-46
2021/03/04 07:19:38;;;;;;;18.65;11.30;;;;;;;;;;5015271;28;20069;-50
2021/03/04 07:22:05;;;;;;;17.05;8.88;;;;;;;;;;5014927;28;20030;-45
2021/03/04 07:24:31;;;;;;;22.30;9.73;;;;;;;;;;5010170;28;20060;-48
2021/03/04 07:26:57;;;;;;;20.73;9.95;;;;;;;;;;5013959;28;20118;-46
2021/03/04 07:29:23;;;;;;;19.40;10.55;;;;;;;;;;5014459;28;20465;-45
2021/03/04 07:31:50;;;;;;;18.13;10.32;;;;;;;;;;5014909;28;20034;-48
2021/03/04 07:34:17;;;;;;;17.73;8.73;;;;;;;;;;5014728;28;20072;-47
2021/03/04 07:36:47;;;;;;;18.08;8.85;;;;;;;;;;5014223;28;20095;-47
2021/03/04 07:39:14;;;;;;;19.40;10.30;;;;;;;;;;5014296;28;20026;-46
2021/03/04 07:41:44;;;;;;;18.60;9.02;;;;;;;;;;5013404;28;20358;-47
2021/03/04 07:44:11;;;;;;;20.67;10.48;;;;;;;;;;4995010;28;20125;-48
2021/03/04 07:46:38;;;;;;;19.10;9.55;;;;;;;;;;4997428;28;20033;-48
2021/03/04 07:49:08;;;;;;;20.15;10.00;;;;;;;;;;5014432;28;20085;-49
2021/03/04 07:51:47;;;;;;;17.15;9.50;;;;;;;;;;5014285;28;20033;-46
2021/03/04 07:54:26;;;;;;;21.67;10.50;;;;;;;;;;5014230;28;20112;-45
2021/03/04 07:57:02;;;;;;;23.08;11.35;;;;;;;;;;5014784;28;20033;-46
2021/03/04 07:59:28;;;;;;;22.88;11.30;;;;;;;;;;5014391;28;20365;-48
2021/03/04 08:01:58;;;;;;;22.88;10.68;;;;;;;;;;5013275;28;20112;-45
2021/03/04 08:04:25;;;;;;;23.17;10.98;;;;;;;;;;5010864;28;20544;-47
2021/03/04 08:06:52;;;;;;;19.40;10.23;;;;;;;;;;5013498;28;20034;-45
2021/03/04 08:09:29;;;;;;;17.42;10.23;;;;;;;;;;5012147;28;20608;-46
2021/03/04 08:12:11;;;;;;;19.58;11.10;;;;;;;;;;5013080;28;20030;-46
2021/03/04 08:14:39;;;;;;;22.67;11.57;;;;;;;;;;5013737;28;20022;-45
2021/03/04 08:17:05;;;;;;;19.52;10.43;;;;;;;;;;5013755;28;20030;-50
2021/03/04 08:19:31;;;;;;;21.45;11.30;;;;;;;;;;5012905;28;20038;-45
2021/03/04 08:22:08;;;;;;;20.52;10.60;;;;;;;;;;5006920;28;20045;-49
2021/03/04 08:24:40;;;;;;;31.02;11.23;;;;;;;;;;4996487;28;20202;-50
2021/03/04 08:27:06;;;;;;;20.45;10.70;;;;;;;;;;5002347;28;20366;-46
2021/03/04 08:29:33;;;;;;;19.58;9.65;;;;;;;;;;5007069;28;20041;-49
2021/03/04 08:32:01;;;;;;;18.13;9.23;;;;;;;;;;5012629;28;20037;-47
2021/03/04 08:34:37;;;;;;;17.52;8.75;;;;;;;;;;5033642;28;20490;-48
2021/03/04 08:37:04;;;;;;;17.90;9.60;;;;;;;;;;5018426;28;20077;-47
2021/03/04 08:39:31;;;;;;;21.70;9.82;;;;;;;;;;5012931;28;20026;-46
2021/03/04 08:42:07;;;;;;;16.27;8.60;;;;;;;;;;5011722;28;20017;-47
2021/03/04 08:44:33;;;;;;;19.17;10.35;;;;;;;;;;5012708;28;20061;-45
2021/03/04 08:46:59;;;;;;;17.90;9.68;;;;;;;;;;5012736;28;20030;-47
2021/03/04 08:49:26;;;;;;;14.40;7.97;;;;;;;;;;5013204;28;20135;-46
2021/03/04 08:51:52;;;;;;;20.58;10.77;;;;;;;;;;5013115;28;20093;-49
2021/03/04 08:54:22;;;;;;;124.88;43.47;;;;;;;;;;5018556;28;20061;-48
2021/03/04 08:56:52;;;;;;;20.15;10.60;;;;;;;;;;5020548;28;20025;-46
2021/03/04 08:59:22;;;;;;;14.50;8.45;;;;;;;;;;5019819;28;20060;-48
2021/03/04 09:01:48;;;;;;;13.85;7.63;;;;;;;;;;5019629;28;20083;-47
2021/03/04 09:04:18;;;;;;;14.90;8.77;;;;;;;;;;5019011;28;20033;-48
2021/03/04 09:06:44;;;;;;;17.50;9.05;;;;;;;;;;5023068;28;20030;-47
2021/03/04 09:09:19;;;;;;;18.75;9.00;;;;;;;;;;5002633;28;20029;-46
2021/03/04 09:11:48;;;;;;;21.38;11.75;;;;;;;;;;5008989;28;20130;-48
2021/03/04 09:14:33;;;;;;;15.85;7.50;;;;;;;;;;5008559;28;20022;-48
2021/03/04 09:17:00;;;;;;;14.90;7.35;;;;;;;;;;5009939;28;20030;-48
2021/03/04 09:19:30;;;;;;;14.23;7.18;;;;;;;;;;5015422;28;20133;-49
2021/03/04 09:22:00;;;;;;;12.85;7.85;;;;;;;;;;5014405;28;20045;-49
2021/03/04 09:24:27;;;;;;;12.88;6.38;;;;;;;;;;5013145;28;20045;-46
2021/03/04 09:26:53;;;;;;;10.55;6.35;;;;;;;;;;5010565;28;20484;-45
2021/03/04 09:29:19;;;;;;;12.65;6.90;;;;;;;;;;5010407;28;20445;-46
2021/03/04 09:31:55;;;;;;;15.35;6.82;;;;;;;;;;5008969;28;20045;-45
2021/03/04 09:34:44;;;;;;;14.38;7.45;;;;;;;;;;5008900;28;20109;-46
2021/03/04 09:37:13;;;;;;;12.38;7.03;;;;;;;;;;5004059;28;20026;-47
2021/03/04 09:39:46;;;;;;;14.80;6.80;;;;;;;;;;5012090;28;20488;-46
2021/03/04 09:42:13;;;;;;;;;;;;;;;;;;5010950;28;20501;-49
2021/03/04 09:44:55;;;;;;;12.68;6.90;;;;;;;;;;5010848;28;19917;-48
2021/03/04 09:47:22;;;;;;;11.88;6.85;;;;;;;;;;5008380;28;20475;-47
2021/03/04 09:49:49;;;;;;;13.35;6.93;;;;;;;;;;5009918;28;20500;-46
2021/03/04 09:52:19;;;;;;;12.10;6.40;;;;;;;;;;5010008;28;20560;-46
2021/03/04 09:54:45;;;;;;;11.85;6.97;;;;;;;;;;5009293;28;20084;-45
2021/03/04 09:57:11;;;;;;;12.50;6.60;;;;;;;;;;5010811;28;20056;-45
2021/03/04 10:00:03;;;;;;;11.07;6.95;;;;;;;;;;5009981;28;20476;-44
2021/03/04 10:02:37;;;;;;;13.90;6.93;;;;;;;;;;5007383;28;20030;-45
2021/03/04 10:05:04;;;;;;;12.43;5.95;;;;;;;;;;5009430;28;20026;-45
2021/03/04 10:07:31;;;;;;;10.85;5.68;;;;;;;;;;5007798;28;20080;-44
2021/03/04 10:09:58;;;;;;;11.77;6.00;;;;;;;;;;5011226;28;20041;-43
2021/03/04 10:12:25;;;;;;;11.00;6.18;;;;;;;;;;5010212;28;20025;-43
2021/03/04 10:14:53;;;;;;;9.98;5.80;;;;;;;;;;5010694;28;20029;-44
2021/03/04 10:17:19;;;;;;;10.68;5.88;;;;;;;;;;5009871;28;20030;-44
2021/03/04 10:19:45;;;;;;;10.43;6.10;;;;;;;;;;5010367;28;20351;-44
2021/03/04 10:22:11;;;;;;;13.07;6.55;;;;;;;;;;5009936;28;20441;-45
2021/03/04 10:24:38;;;;;;;11.75;6.15;;;;;;;;;;5009872;28;20037;-44
2021/03/04 10:27:05;;;;;;;12.27;6.30;;;;;;;;;;5009851;28;20026;-43
2021/03/04 10:29:32;;;;;;;12.25;6.70;;;;;;;;;;5009813;28;20038;-44
2021/03/04 10:31:58;;;;;;;12.15;6.78;;;;;;;;;;5009963;28;20507;-46
2021/03/04 10:34:25;;;;;;;12.20;6.63;;;;;;;;;;5010030;28;20036;-43
2021/03/04 10:36:51;;;;;;;13.80;7.13;;;;;;;;;;5010935;28;20026;-44
2021/03/04 10:39:18;;;;;;;10.13;6.13;;;;;;;;;;5010618;28;20028;-44
2021/03/04 10:41:44;;;;;;;11.60;6.53;;;;;;;;;;5010737;28;20473;-44
2021/03/04 10:44:11;;;;;;;9.95;5.20;;;;;;;;;;5010946;28;20385;-43
2021/03/04 10:46:37;;;;;;;12.85;6.22;;;;;;;;;;5011145;28;20068;-44
2021/03/04 10:49:04;;;;;;;11.45;5.45;;;;;;;;;;5009961;28;20136;-43
2021/03/04 10:51:31;;;;;;;12.38;6.35;;;;;;;;;;5010210;28;20026;-46
2021/03/04 10:53:57;;;;;;;11.95;6.43;;;;;;;;;;5009792;28;20025;-46
2021/03/04 10:56:23;;;;;;;10.70;6.40;;;;;;;;;;5010135;28;20044;-43
2021/03/04 10:58:49;;;;;;;12.00;6.10;;;;;;;;;;5010543;28;20466;-44
2021/03/04 11:01:15;;;;;;;16.20;7.93;;;;;;;;;;5010908;28;20021;-45
2021/03/04 11:03:41;;;;;;;13.68;8.35;;;;;;;;;;5010732;28;20381;-44
2021/03/04 11:06:08;;;;;;;14.23;7.80;;;;;;;;;;5010802;28;20114;-43
2021/03/04 11:08:34;;;;;;;12.30;7.25;;;;;;;;;;5010382;28;20025;-44
2021/03/04 11:11:00;;;;;;;12.82;6.55;;;;;;;;;;5010792;28;20017;-43
2021/03/04 11:13:26;;;;;;;11.55;6.88;;;;;;;;;;5009815;28;20100;-43
2021/03/04 11:15:52;;;;;;;12.65;7.43;;;;;;;;;;5010474;28;20353;-43
2021/03/04 11:18:18;;;;;;;11.95;6.70;;;;;;;;;;5015097;28;20033;-43
2021/03/04 11:20:44;;;;;;;11.68;6.38;;;;;;;;;;5013587;28;20577;-44
2021/03/04 11:23:10;;;;;;;11.73;6.90;;;;;;;;;;5013472;28;20022;-46
2021/03/04 11:25:36;;;;;;;11.95;6.70;;;;;;;;;;5013238;28;20703;-44
2021/03/04 11:28:04;;;;;;;12.25;7.45;;;;;;;;;;5013659;28;20036;-45
2021/03/04 11:30:30;;;;;;;13.35;7.65;;;;;;;;;;5014088;28;20087;-46
2021/03/04 11:32:57;;;;;;;11.88;7.18;;;;;;;;;;5013446;28;20124;-46
2021/03/04 11:35:27;;;;;;;11.55;6.28;;;;;;;;;;5012810;28;20036;-44
2021/03/04 11:37:56;;;;;;;12.85;8.07;;;;;;;;;;5013331;28;20483;-44
2021/03/04 11:40:23;;;;;;;11.27;7.10;;;;;;;;;;5014296;28;20423;-44
2021/03/04 11:42:49;;;;;;;11.27;6.20;;;;;;;;;;5014871;28;20442;-44
2021/03/04 11:45:16;;;;;;;11.32;7.53;;;;;;;;;;5011738;28;20034;-43
2021/03/04 11:47:42;;;;;;;15.25;8.48;;;;;;;;;;5015013;28;20018;-46
2021/03/04 11:50:08;;;;;;;17.25;8.75;;;;;;;;;;5013987;28;20512;-43
2021/03/04 11:52:34;;;;;;;15.13;9.25;;;;;;;;;;4997238;28;20057;-43
2021/03/04 11:55:00;;;;;;;15.10;9.35;;;;;;;;;;5014623;28;20416;-43
2021/03/04 11:57:27;;;;;;;15.23;9.75;;;;;;;;;;5014633;28;20022;-44
2021/03/04 11:59:55;;;;;;;13.85;9.98;;;;;;;;;;5014773;28;20034;-44
2021/03/04 12:02:21;;;;;;;15.30;10.73;;;;;;;;;;5014439;28;20029;-44
2021/03/04 12:04:47;;;;;;;14.80;9.23;;;;;;;;;;5014748;28;20113;-42
2021/03/04 12:07:13;;;;;;;16.08;9.35;;;;;;;;;;5013932;28;20041;-44
2021/03/04 12:09:39;;;;;;;12.43;8.40;;;;;;;;;;5014243;28;20140;-45
2021/03/04 12:12:05;;;;;;;12.07;7.72;;;;;;;;;;5016652;28;20034;-43
2021/03/04 12:14:31;;;;;;;9.93;6.68;;;;;;;;;;5034250;28;20412;-43
2021/03/04 12:16:57;;;;;;;13.38;7.90;;;;;;;;;;5034426;28;20029;-43
2021/03/04 12:19:24;;;;;;;13.32;7.78;;;;;;;;;;5033796;28;20038;-43
2021/03/04 12:21:50;;;;;;;14.57;8.07;;;;;;;;;;5034375;28;20022;-42
2021/03/04 12:24:16;;;;;;;14.65;9.93;;;;;;;;;;5033703;28;20060;-42
2021/03/04 12:26:42;;;;;;;17.60;10.55;;;;;;;;;;5033710;28;20045;-43
2021/03/04 12:29:08;;;;;;;17.00;10.52;;;;;;;;;;5033882;28;20579;-43
2021/03/04 12:31:34;;;;;;;15.55;9.50;;;;;;;;;;5034221;28;20033;-43
2021/03/04 12:34:00;;;;;;;13.88;8.77;;;;;;;;;;5033857;28;20026;-43
2021/03/04 12:36:26;;;;;;;12.60;8.88;;;;;;;;;;5033768;28;20472;-43
2021/03/04 12:38:52;;;;;;;12.70;8.80;;;;;;;;;;5033872;28;20100;-43
2021/03/04 12:41:19;;;;;;;13.40;7.50;;;;;;;;;;5034222;28;20014;-44
2021/03/04 12:43:45;;;;;;;15.88;7.75;;;;;;;;;;5033401;28;20491;-43
2021/03/04 12:46:12;;;;;;;10.45;6.03;;;;;;;;;;5033843;28;20029;-44
2021/03/04 12:48:38;;;;;;;7.65;5.13;;;;;;;;;;5032963;28;20029;-43
2021/03/04 12:51:04;;;;;;;10.43;5.65;;;;;;;;;;5033668;28;20408;-43
2021/03/04 12:53:30;;;;;;;23.73;4.95;;;;;;;;;;5034227;28;20021;-44
2021/03/04 12:55:56;;;;;;;9.98;5.65;;;;;;;;;;5033073;28;20030;-43
2021/03/04 12:58:22;;;;;;;10.60;5.32;;;;;;;;;;5032770;28;20137;-46
2021/03/04 13:00:48;;;;;;;9.55;5.00;;;;;;;;;;5032992;28;20022;-43
2021/03/04 13:03:14;;;;;;;11.63;5.75;;;;;;;;;;5033522;28;20553;-43
2021/03/04 13:05:42;;;;;;;12.05;5.75;;;;;;;;;;5033391;28;20048;-44
2021/03/04 13:08:08;;;;;;;10.50;5.43;;;;;;;;;;5033137;28;20465;-43
2021/03/04 13:10:34;;;;;;;8.95;5.07;;;;;;;;;;5033355;28;20083;-42
2021/03/04 13:13:00;;;;;;;7.32;4.43;;;;;;;;;;5033045;28;20037;-46
2021/03/04 13:15:26;;;;;;;9.18;4.88;;;;;;;;;;5032889;28;20087;-43
2021/03/04 13:17:52;;;;;;;7.93;4.38;;;;;;;;;;5032739;28;20365;-43
2021/03/04 13:20:19;;;;;;;9.75;4.15;;;;;;;;;;5032923;28;20049;-45
2021/03/04 13:22:45;;;;;;;12.35;4.30;;;;;;;;;;5032865;28;20029;-43
2021/03/04 13:25:11;;;;;;;8.27;4.30;;;;;;;;;;5032601;28;20507;-42
2021/03/04 13:27:37;;;;;;;9.32;4.38;;;;;;;;;;5033072;28;20017;-44
2021/03/04 13:30:04;;;;;;;7.13;4.22;;;;;;;;;;5033113;28;20103;-43
2021/03/04 13:32:30;;;;;;;7.95;4.60;;;;;;;;;;5032921;28;20020;-44
2021/03/04 13:34:56;;;;;;;6.53;4.00;;;;;;;;;;5032627;28;20469;-42
2021/03/04 13:37:22;;;;;;;7.68;3.65;;;;;;;;;;5033018;28;20075;-43
2021/03/04 13:39:48;;;;;;;7.05;3.78;;;;;;;;;;5032056;28;20079;-43
2021/03/04 13:42:14;;;;;;;8.68;3.80;;;;;;;;;;5032555;28;20029;-44
2021/03/04 13:44:40;;;;;;;8.45;4.25;;;;;;;;;;5032464;28;20193;-42
2021/03/04 13:47:06;;;;;;;10.13;4.32;;;;;;;;;;5032488;28;20104;-43
2021/03/04 13:49:32;;;;;;;6.82;3.58;;;;;;;;;;5032561;28;20075;-43
2021/03/04 13:51:58;;;;;;;6.10;3.47;;;;;;;;;;5032837;28;20069;-42
2021/03/04 13:54:25;;;;;;;10.07;4.00;;;;;;;;;;5032707;28;20021;-44
2021/03/04 13:56:51;;;;;;;7.05;4.10;;;;;;;;;;5032268;28;20060;-43
2021/03/04 13:59:17;;;;;;;11.68;4.18;;;;;;;;;;5032316;28;20029;-44
2021/03/04 14:01:43;;;;;;;9.88;4.40;;;;;;;;;;5032638;28;20345;-42
2021/03/04 14:04:09;;;;;;;6.20;3.70;;;;;;;;;;5032546;28;20049;-45
2021/03/04 14:06:35;;;;;;;7.30;3.70;;;;;;;;;;5032735;28;20057;-46
2021/03/04 14:09:02;;;;;;;7.45;3.80;;;;;;;;;;5032262;28;20491;-43
2021/03/04 14:11:28;;;;;;;6.88;3.53;;;;;;;;;;5032416;28;20098;-42
2021/03/04 14:13:54;;;;;;;10.70;5.65;;;;;;;;;;5032429;28;20029;-44
2021/03/04 14:16:20;;;;;;;7.80;3.85;;;;;;;;;;5031937;28;20029;-44
2021/03/04 14:18:47;;;;;;;7.15;4.28;;;;;;;;;;5032178;28;20037;-46
2021/03/04 14:21:13;;;;;;;5.75;3.55;;;;;;;;;;5032159;28;20022;-44
2021/03/04 14:23:39;;;;;;;7.65;4.00;;;;;;;;;;5031933;28;20449;-45
2021/03/04 14:26:05;;;;;;;5.95;3.35;;;;;;;;;;5032433;28;20109;-42
2021/03/04 14:28:31;;;;;;;6.30;3.58;;;;;;;;;;5032133;28;20030;-42